Time;durP1;ratioP1;P1;durP2;ratioP2;P2;SDS_P1;SDS_P2;PMS_P1;PMS_P2;Temp;Humidity;BMP_temperature;BMP_pressure;BME280_temperature;BME280_humidity;BME280_pressure;Samples;Min_cycle;Max_cycle;Signal;HPM_P1;HPM_P2
2023/10/29 00:00:17;;;;;;;5.15;3.30;;;;;;;13.41;100.00;98797.59;5070416;28;20048;-80
2023/10/29 00:02:45;;;;;;;6.75;3.20;;;;;;;13.43;100.00;98779.00;5073639;28;20442;-82
2023/10/29 00:05:11;;;;;;;6.72;3.13;;;;;;;13.41;100.00;98776.59;5070145;28;20131;-81
2023/10/29 00:07:39;;;;;;;7.50;3.00;;;;;;;13.47;100.00;98786.22;5070967;28;20076;-79
2023/10/29 00:10:07;;;;;;;6.13;3.30;;;;;;;13.56;100.00;98779.66;5078088;28;20052;-80
2023/10/29 00:12:35;;;;;;;5.55;3.35;;;;;;;13.58;100.00;98790.75;5078353;28;20070;-79
2023/10/29 00:15:02;;;;;;;4.25;3.10;;;;;;;13.56;100.00;98792.78;5080218;28;20485;-80
2023/10/29 00:17:30;;;;;;;6.20;3.15;;;;;;;13.59;100.00;98784.47;5069045;28;20049;-81
2023/10/29 00:19:59;;;;;;;5.05;3.30;;;;;;;13.52;100.00;98786.38;5074209;28;20048;-80
2023/10/29 00:22:26;;;;;;;4.20;3.17;;;;;;;13.55;100.00;98779.88;5079212;28;20044;-81
2023/10/29 00:24:52;;;;;;;8.23;3.40;;;;;;;13.58;100.00;98785.50;5079597;28;20108;-81
2023/10/29 00:27:19;;;;;;;6.10;3.30;;;;;;;13.58;100.00;98792.56;5078682;28;20188;-80
2023/10/29 00:29:46;;;;;;;6.75;3.42;;;;;;;13.60;100.00;98790.53;5079806;28;20083;-81
2023/10/29 00:32:15;;;;;;;4.25;3.05;;;;;;;13.63;100.00;98784.03;5071031;28;20045;-79
2023/10/29 00:34:43;;;;;;;6.78;3.08;;;;;;;13.57;100.00;98773.38;5078218;28;20498;-81
2023/10/29 00:37:10;;;;;;;5.30;3.40;;;;;;;13.59;100.00;98789.72;5076502;28;20077;-81
2023/10/29 00:39:36;;;;;;;6.85;3.17;;;;;;;13.62;100.00;98791.13;5075915;28;20052;-80
2023/10/29 00:42:02;;;;;;;5.93;3.30;;;;;;;13.62;100.00;98780.59;5077947;28;20056;-80
2023/10/29 00:44:29;;;;;;;7.45;3.00;;;;;;;13.69;100.00;98781.34;5077219;28;20048;-81
2023/10/29 00:46:57;;;;;;;5.78;3.30;;;;;;;13.67;100.00;98786.00;5078080;28;20136;-79
2023/10/29 00:49:23;;;;;;;6.00;3.22;;;;;;;13.68;100.00;98792.06;5074809;28;20382;-80
2023/10/29 00:51:53;;;;;;;4.18;3.00;;;;;;;13.60;100.00;98770.31;5072633;28;20131;-81
2023/10/29 00:54:21;;;;;;;4.85;3.20;;;;;;;13.66;100.00;98767.81;5067894;28;20072;-81
2023/10/29 00:56:48;;;;;;;5.95;3.35;;;;;;;13.70;100.00;98759.28;5078389;28;20067;-81
2023/10/29 00:59:15;;;;;;;10.38;3.92;;;;;;;13.61;100.00;98740.38;5078662;28;20044;-82
2023/10/29 01:01:42;;;;;;;9.82;4.03;;;;;;;13.64;100.00;98723.38;5077450;28;20128;-82
2023/10/29 01:04:09;;;;;;;6.15;3.60;;;;;;;13.64;100.00;98727.81;5079321;28;20041;-80
2023/10/29 01:06:40;;;;;;;9.18;4.07;;;;;;;13.64;100.00;98712.84;5075206;28;20053;-80
2023/10/29 01:09:09;;;;;;;5.30;3.60;;;;;;;13.65;100.00;98743.38;5057282;28;20103;-81
2023/10/29 01:11:35;;;;;;;6.88;3.72;;;;;;;13.66;100.00;98731.03;5057189;28;20053;-81
2023/10/29 01:14:02;;;;;;;4.55;3.25;;;;;;;13.70;100.00;98732.19;5057508;28;20075;-81
2023/10/29 01:16:29;;;;;;;5.45;3.25;;;;;;;13.70;100.00;98734.81;5057841;28;20578;-81
2023/10/29 01:18:56;;;;;;;7.30;3.63;;;;;;;13.67;100.00;98727.38;5065595;28;20151;-81
2023/10/29 01:21:23;;;;;;;5.13;3.10;;;;;;;13.73;100.00;98721.22;5058209;28;20410;-80
2023/10/29 01:23:50;;;;;;;5.20;3.10;;;;;;;13.79;100.00;98721.13;5073061;28;20040;-82
2023/10/29 01:26:18;;;;;;;6.53;3.70;;;;;;;13.81;100.00;98734.84;5077883;28;20367;-81
2023/10/29 01:28:45;;;;;;;7.38;3.22;;;;;;;13.90;100.00;98723.00;5077128;28;20066;-80
2023/10/29 01:31:12;;;;;;;7.10;3.60;;;;;;;13.88;100.00;98724.25;5076949;28;20044;-80
2023/10/29 01:33:39;;;;;;;5.93;3.35;;;;;;;13.98;100.00;98714.00;5065792;28;20071;-81
2023/10/29 01:36:06;;;;;;;8.15;3.33;;;;;;;13.99;100.00;98712.16;5058458;28;20045;-81
2023/10/29 01:38:33;;;;;;;5.45;3.40;;;;;;;13.90;100.00;98715.13;5058499;28;20049;-81
2023/10/29 01:41:00;;;;;;;6.18;2.95;;;;;;;13.91;100.00;98708.84;5068005;28;20040;-82
2023/10/29 01:43:28;;;;;;;5.82;3.20;;;;;;;13.85;100.00;98703.66;5079228;28;20467;-83
2023/10/29 01:45:54;;;;;;;6.13;3.53;;;;;;;13.85;100.00;98708.91;5078544;28;20317;-82
2023/10/29 01:48:23;;;;;;;4.82;3.13;;;;;;;13.86;100.00;98690.28;5070233;28;20140;-81
2023/10/29 01:50:50;;;;;;;5.15;3.22;;;;;;;13.89;100.00;98684.59;5058211;28;20045;-82
2023/10/29 01:53:17;;;;;;;7.03;3.70;;;;;;;13.84;100.00;98675.78;5059063;28;20067;-83
2023/10/29 01:55:44;;;;;;;6.93;3.40;;;;;;;13.86;100.00;98686.88;5058626;28;20067;-81
2023/10/29 01:58:10;;;;;;;4.72;3.22;;;;;;;13.86;100.00;98689.50;5058288;28;20539;-82
2023/10/29 02:00:39;;;;;;;6.35;3.13;;;;;;;13.82;100.00;98672.56;5069367;28;20056;-80
2023/10/29 02:03:06;;;;;;;5.50;3.30;;;;;;;13.91;100.00;98676.47;5060288;28;20057;-81
2023/10/29 02:05:33;;;;;;;6.88;3.15;;;;;;;13.93;100.00;98683.13;5069145;28;20056;-80
2023/10/29 02:07:59;;;;;;;6.93;3.00;;;;;;;13.85;100.00;98674.75;5078272;28;20075;-80
2023/10/29 02:10:26;;;;;;;6.93;3.25;;;;;;;13.69;100.00;98672.78;5077629;28;20123;-82
2023/10/29 02:12:53;;;;;;;6.72;3.20;;;;;;;13.70;100.00;98669.13;5078615;28;20110;-81
2023/10/29 02:15:19;;;;;;;6.80;3.03;;;;;;;13.61;100.00;98669.44;5077721;28;20098;-82
2023/10/29 02:17:47;;;;;;;5.68;3.10;;;;;;;13.54;100.00;98665.28;5075408;28;20083;-82
2023/10/29 02:20:14;;;;;;;7.22;3.33;;;;;;;13.50;100.00;98659.66;5069687;28;20053;-83
2023/10/29 02:22:42;;;;;;;5.05;3.15;;;;;;;13.53;100.00;98666.31;5078393;28;20053;-81
2023/10/29 02:25:12;;;;;;;7.10;3.10;;;;;;;13.49;100.00;98658.06;5078316;28;20447;-81
2023/10/29 02:27:38;;;;;;;8.45;3.13;;;;;;;13.50;100.00;98666.75;5078182;28;20115;-81
2023/10/29 02:30:10;;;;;;;5.82;3.33;;;;;;;13.52;100.00;98660.25;5077710;28;20080;-82
2023/10/29 02:32:37;;;;;;;4.53;2.80;;;;;;;13.54;100.00;98670.53;5078449;28;20063;-83
2023/10/29 02:35:04;;;;;;;3.38;2.80;;;;;;;13.57;100.00;98664.84;5074841;28;20052;-82
2023/10/29 02:37:30;;;;;;;6.10;2.95;;;;;;;13.56;100.00;98674.53;5071892;28;20112;-81
2023/10/29 02:39:58;;;;;;;5.90;3.40;;;;;;;13.59;100.00;98647.81;5078370;28;20053;-81
2023/10/29 02:42:25;;;;;;;4.07;2.53;;;;;;;13.52;100.00;98631.34;5065610;28;20087;-81
2023/10/29 02:44:52;;;;;;;4.72;3.03;;;;;;;13.52;100.00;98636.59;5061911;28;20067;-83
2023/10/29 02:47:19;;;;;;;5.53;2.72;;;;;;;13.49;100.00;98637.03;5061460;28;20045;-81
2023/10/29 02:49:45;;;;;;;4.63;2.85;;;;;;;13.50;100.00;98643.91;5077707;28;20657;-80
2023/10/29 02:52:12;;;;;;;5.78;3.20;;;;;;;13.47;100.00;98654.84;5065558;28;20045;-80
2023/10/29 02:54:38;;;;;;;7.72;3.22;;;;;;;13.47;100.00;98649.59;5065474;28;20079;-79
2023/10/29 02:57:06;;;;;;;4.68;2.85;;;;;;;13.47;100.00;98639.09;5059821;28;20053;-79
2023/10/29 02:59:33;;;;;;;4.90;2.20;;;;;;;13.50;100.00;98638.66;5069928;28;20072;-81
2023/10/29 03:02:00;;;;;;;9.52;3.00;;;;;;;13.50;100.00;98643.09;5080595;28;20422;-81
2023/10/29 03:04:26;;;;;;;3.65;2.38;;;;;;;13.47;100.00;98628.59;5081031;28;20071;-81
2023/10/29 03:06:53;;;;;;;5.30;2.45;;;;;;;13.56;100.00;98632.50;5080587;28;20123;-82
2023/10/29 03:09:19;;;;;;;4.43;2.30;;;;;;;13.58;100.00;98633.09;5062657;28;20124;-81
2023/10/29 03:11:46;;;;;;;4.88;2.53;;;;;;;13.56;100.00;98642.22;5059531;28;20084;-81
2023/10/29 03:14:14;;;;;;;6.00;3.00;;;;;;;13.58;100.00;98629.66;5067717;28;20475;-81
2023/10/29 03:16:40;;;;;;;3.13;2.42;;;;;;;13.53;100.00;98596.16;5071876;28;20128;-80
2023/10/29 03:19:07;;;;;;;4.35;2.15;;;;;;;13.51;100.00;98606.09;5079300;28;20095;-79
2023/10/29 03:21:34;;;;;;;3.42;2.22;;;;;;;13.57;100.00;98628.84;5076266;28;20739;-82
2023/10/29 03:23:59;;;;;;;4.53;2.47;;;;;;;13.56;100.00;98629.88;5067052;28;20128;-81
2023/10/29 03:26:26;;;;;;;5.88;2.35;;;;;;;13.55;100.00;98641.41;5069700;28;20080;-81
2023/10/29 03:28:53;;;;;;;2.80;2.17;;;;;;;13.57;100.00;98623.59;5059957;28;20128;-82
2023/10/29 03:31:21;;;;;;;2.80;1.80;;;;;;;13.63;100.00;98593.00;5076866;28;20112;-82
2023/10/29 03:33:47;;;;;;;3.97;2.30;;;;;;;13.59;100.00;98600.53;5074646;28;20049;-82
2023/10/29 03:36:14;;;;;;;3.00;2.33;;;;;;;13.57;100.00;98601.78;5075893;28;20122;-82
2023/10/29 03:38:41;;;;;;;2.20;1.80;;;;;;;13.64;100.00;98601.69;5079635;28;20075;-81
2023/10/29 03:41:07;;;;;;;4.53;2.10;;;;;;;13.56;100.00;98594.91;5070723;28;20091;-82
2023/10/29 03:43:34;;;;;;;3.05;2.20;;;;;;;13.56;100.00;98595.72;5059720;28;20136;-81
2023/10/29 03:46:01;;;;;;;5.78;3.50;;;;;;;13.56;100.00;98585.22;5065054;28;20080;-82
2023/10/29 03:48:28;;;;;;;5.05;2.08;;;;;;;13.53;100.00;98604.03;5076722;28;20131;-81
2023/10/29 03:50:55;;;;;;;2.22;1.67;;;;;;;13.57;100.00;98614.91;5057404;28;20136;-81
2023/10/29 03:53:22;;;;;;;2.20;1.90;;;;;;;13.63;100.00;98627.16;5057905;28;20147;-82
2023/10/29 03:55:50;;;;;;;2.15;1.83;;;;;;;13.61;100.00;98611.63;5070529;28;20124;-83
2023/10/29 03:58:16;;;;;;;3.58;1.83;;;;;;;13.68;100.00;98614.16;5076184;28;20056;-81
2023/10/29 04:00:43;;;;;;;3.55;1.85;;;;;;;13.75;100.00;98603.50;5056893;28;20482;-82
2023/10/29 04:03:13;;;;;;;2.03;1.70;;;;;;;13.83;100.00;98579.53;5058100;28;20135;-82
2023/10/29 04:05:40;;;;;;;4.45;2.53;;;;;;;13.81;100.00;98576.31;5062998;28;20136;-81
2023/10/29 04:08:07;;;;;;;3.45;2.38;;;;;;;13.87;100.00;98549.94;5072931;28;20087;-81
2023/10/29 04:10:34;;;;;;;3.40;2.08;;;;;;;13.84;100.00;98560.91;5087215;28;20073;-82
2023/10/29 04:13:00;;;;;;;2.42;1.58;;;;;;;13.88;100.00;98556.78;5072580;28;20079;-81
2023/10/29 04:15:27;;;;;;;3.75;1.98;;;;;;;13.90;100.00;98569.72;5088453;28;20044;-81
2023/10/29 04:17:54;;;;;;;5.28;2.40;;;;;;;13.93;100.00;98577.94;5092098;28;20079;-82
2023/10/29 04:20:20;;;;;;;7.85;2.00;;;;;;;13.89;100.00;98595.19;5092008;28;20044;-82
2023/10/29 04:22:48;;;;;;;4.28;1.83;;;;;;;13.94;100.00;98597.94;5078333;28;20052;-82
2023/10/29 04:25:15;;;;;;;4.90;2.10;;;;;;;13.93;100.00;98600.81;5087504;28;20055;-82
2023/10/29 04:27:42;;;;;;;3.80;2.05;;;;;;;13.95;100.00;98601.38;5067241;28;20053;-82
2023/10/29 04:30:09;;;;;;;2.80;1.88;;;;;;;13.93;100.00;98609.50;5069545;28;20087;-81
2023/10/29 04:32:36;;;;;;;3.92;2.00;;;;;;;13.95;100.00;98619.78;5072308;28;20072;-81
2023/10/29 04:35:02;;;;;;;2.72;1.70;;;;;;;13.99;100.00;98605.16;5088468;28;20084;-81
2023/10/29 04:37:29;;;;;;;3.97;2.72;;;;;;;13.98;100.00;98608.81;5079707;28;20506;-81
2023/10/29 04:39:57;;;;;;;3.40;1.73;;;;;;;13.99;100.00;98615.69;5066805;28;20147;-79
2023/10/29 04:42:23;;;;;;;2.17;1.90;;;;;;;13.98;100.00;98619.34;5059090;28;20049;-80
2023/10/29 04:44:50;;;;;;;2.55;1.73;;;;;;;13.98;100.00;98623.78;5072289;28;20510;-79
2023/10/29 04:47:17;;;;;;;2.65;2.03;;;;;;;14.00;100.00;98621.75;5073725;28;20076;-79
2023/10/29 04:49:44;;;;;;;2.80;2.00;;;;;;;14.04;100.00;98621.06;5080322;28;20092;-80
2023/10/29 04:52:14;;;;;;;2.42;1.80;;;;;;;13.99;100.00;98622.78;5078600;28;20082;-81
2023/10/29 04:54:42;;;;;;;3.30;1.85;;;;;;;13.94;100.00;98631.34;5078345;28;20053;-81
2023/10/29 04:57:10;;;;;;;2.75;1.60;;;;;;;13.93;100.00;98625.28;5062088;28;20112;-80
2023/10/29 04:59:37;;;;;;;2.95;2.25;;;;;;;14.01;100.00;98628.59;5059040;28;20056;-80
2023/10/29 05:02:04;;;;;;;2.72;1.80;;;;;;;14.00;100.00;98619.13;5058102;28;20053;-81
2023/10/29 05:04:31;;;;;;;4.18;1.77;;;;;;;14.04;100.00;98623.69;5077916;28;20556;-80
2023/10/29 05:06:58;;;;;;;1.98;1.55;;;;;;;14.11;99.70;98620.97;5045302;28;20048;-80
2023/10/29 05:09:27;;;;;;;4.00;1.98;;;;;;;14.14;98.92;98621.31;5059022;28;20079;-80
2023/10/29 05:11:54;;;;;;;6.05;2.30;;;;;;;14.17;98.80;98628.75;5063577;28;20049;-81
2023/10/29 05:14:23;;;;;;;3.78;1.90;;;;;;;14.27;97.64;98631.59;5057246;28;20048;-80
2023/10/29 05:16:49;;;;;;;4.00;1.80;;;;;;;14.23;97.69;98624.38;5078879;28;20070;-80
2023/10/29 05:19:16;;;;;;;3.80;1.95;;;;;;;14.20;97.61;98641.41;5078162;28;20053;-81
2023/10/29 05:21:43;;;;;;;1.85;1.58;;;;;;;14.21;97.54;98640.38;5076880;28;20559;-80
2023/10/29 05:24:09;;;;;;;3.70;1.40;;;;;;;14.26;97.52;98637.06;5077879;28;20064;-80
2023/10/29 05:26:37;;;;;;;4.03;2.00;;;;;;;14.25;97.53;98631.00;5067535;28;20523;-82
2023/10/29 05:29:03;;;;;;;3.28;1.63;;;;;;;14.24;97.71;98632.03;5068731;28;20044;-82
2023/10/29 05:31:31;;;;;;;2.80;2.10;;;;;;;14.22;97.14;98626.22;5076281;28;20092;-82
2023/10/29 05:33:59;;;;;;;2.17;1.50;;;;;;;14.18;96.96;98632.16;5063343;28;20083;-81
2023/10/29 05:36:25;;;;;;;2.05;1.42;;;;;;;14.15;96.92;98632.63;5073607;28;20044;-82
2023/10/29 05:38:52;;;;;;;4.35;1.67;;;;;;;14.12;96.87;98644.41;5066314;28;20108;-81
2023/10/29 05:41:18;;;;;;;2.78;1.58;;;;;;;14.13;96.67;98632.84;5073676;28;20131;-81
2023/10/29 05:43:45;;;;;;;3.95;2.08;;;;;;;14.08;96.80;98630.09;5063708;28;20072;-82
2023/10/29 05:46:13;;;;;;;5.00;2.40;;;;;;;14.10;97.12;98640.41;5067256;28;20048;-82
2023/10/29 05:48:41;;;;;;;4.97;1.67;;;;;;;14.08;96.95;98645.88;5068101;28;20110;-82
2023/10/29 05:51:12;;;;;;;2.92;1.67;;;;;;;14.11;96.18;98640.16;5076091;28;20223;-82
2023/10/29 05:53:39;;;;;;;4.68;1.77;;;;;;;14.06;96.74;98647.94;5076388;28;20407;-82
2023/10/29 05:56:06;;;;;;;3.63;2.10;;;;;;;13.99;96.81;98651.69;5063625;28;20041;-82
2023/10/29 05:58:33;;;;;;;6.55;1.95;;;;;;;13.99;96.86;98673.53;5067093;28;20128;-82
2023/10/29 06:01:00;;;;;;;4.75;1.75;;;;;;;13.94;96.45;98655.00;5081618;28;20062;-82
2023/10/29 06:03:27;;;;;;;4.65;1.95;;;;;;;13.93;97.08;98666.53;5080243;28;20041;-81
2023/10/29 06:05:55;;;;;;;2.05;1.67;;;;;;;13.90;97.22;98680.13;5078624;28;20112;-83
2023/10/29 06:08:22;;;;;;;4.57;1.60;;;;;;;13.85;97.64;98675.53;5078431;28;20346;-83
2023/10/29 06:10:49;;;;;;;4.60;1.90;;;;;;;13.86;97.47;98677.16;5079140;28;20048;-85
2023/10/29 06:13:24;;;;;;;5.10;1.90;;;;;;;13.85;97.63;98669.50;5074443;28;20080;-85
2023/10/29 06:15:50;;;;;;;3.75;1.58;;;;;;;13.89;97.38;98676.69;5068654;28;20060;-84
2023/10/29 06:18:18;;;;;;;5.85;2.00;;;;;;;13.88;97.54;98682.19;5075546;28;20132;-83
2023/10/29 06:20:44;;;;;;;2.88;1.65;;;;;;;13.92;96.88;98672.81;5075520;28;20055;-84
2023/10/29 06:23:12;;;;;;;4.35;1.92;;;;;;;13.97;96.69;98680.84;5068161;28;20128;-82
2023/10/29 06:25:39;;;;;;;3.40;1.60;;;;;;;13.91;96.89;98689.63;5077263;28;20094;-82
2023/10/29 06:28:07;;;;;;;5.13;1.55;;;;;;;13.89;96.97;98694.31;5073550;28;20446;-83
2023/10/29 06:30:34;;;;;;;8.65;2.10;;;;;;;13.78;97.40;98702.94;5076057;28;20059;-86
2023/10/29 06:33:02;;;;;;;4.90;2.08;;;;;;;13.74;98.20;98701.78;5067523;28;20056;-83
2023/10/29 06:35:29;;;;;;;3.13;1.77;;;;;;;13.70;98.38;98711.97;5075441;28;20055;-85
2023/10/29 06:37:56;;;;;;;3.45;1.88;;;;;;;13.76;97.82;98718.13;5068014;28;20071;-83
2023/10/29 06:40:25;;;;;;;4.90;1.75;;;;;;;13.75;98.01;98725.22;5079478;28;20053;-82
2023/10/29 06:42:52;;;;;;;7.32;2.00;;;;;;;13.71;98.16;98733.78;5094347;28;20028;-86
2023/10/29 08:37:32;;;;;;;5.15;1.98;;;;;;;14.78;90.19;98808.34;4970842;28;20571;-87
2023/10/29 08:40:10;;;;;;;;;;;;;;;;;;;;;
2023/10/29 08:42:48;;;;;;;2.78;1.63;;;;;;;14.74;90.40;98826.41;5023948;28;20050;-87
2023/10/29 08:45:15;;;;;;;4.15;1.67;;;;;;;14.60;91.25;98822.41;5030075;28;20060;-87
2023/10/29 08:47:47;;;;;;;3.92;1.83;;;;;;;14.69;91.44;98836.81;5028360;28;20037;-88
2023/10/29 08:50:20;;;;;;;3.47;1.35;;;;;;;14.69;91.56;98830.75;5028733;28;20049;-86
2023/10/29 08:52:56;;;;;;;5.15;1.58;;;;;;;14.64;91.78;98839.34;5027314;28;20045;-87
2023/10/29 08:55:33;;;;;;;2.13;1.25;;;;;;;14.52;91.58;98826.16;5033792;28;20061;-87
2023/10/29 08:58:12;;;;;;;5.35;2.08;;;;;;;14.55;92.02;98830.16;5028624;28;20133;-88
2023/10/29 09:00:40;;;;;;;2.30;1.35;;;;;;;14.60;92.24;98838.19;5013398;28;20046;-87
2023/10/29 09:03:13;;;;;;;2.55;1.27;;;;;;;14.61;92.19;98847.69;5028286;28;20054;-85
2023/10/29 09:05:46;;;;;;;3.17;1.77;;;;;;;14.51;92.18;98829.00;5014147;28;20080;-90
2023/10/29 09:08:13;;;;;;;2.45;1.80;;;;;;;14.40;92.02;98832.38;5036980;28;20045;-87
2023/10/29 09:10:45;;;;;;;5.00;1.95;;;;;;;14.54;91.78;98841.72;5025080;28;20033;-87
2023/10/29 09:16:11;;;;;;;1.65;1.33;;;;;;;14.61;90.80;98855.59;5023636;28;20052;-86
2023/10/29 09:18:46;;;;;;;3.28;2.10;;;;;;;14.65;90.45;98859.34;5022571;28;20054;-86
2023/10/29 09:21:32;;;;;;;1.95;1.60;;;;;;;14.84;89.97;98873.25;5030305;28;20046;-88
2023/10/29 09:24:02;;;;;;;3.70;1.92;;;;;;;14.81;89.55;98874.50;5022751;28;20046;-88
2023/10/29 09:26:29;;;;;;;4.35;1.88;;;;;;;14.84;88.94;98863.53;5025273;28;20058;-88
2023/10/29 09:28:56;;;;;;;3.90;1.90;;;;;;;14.83;88.17;98840.06;5029776;28;20053;-85
2023/10/29 09:31:43;;;;;;;4.32;1.40;;;;;;;14.90;87.29;98841.56;5027428;28;20124;-88
2023/10/29 09:37:46;;;;;;;3.35;1.88;;;;;;;14.86;86.61;98811.44;5007496;28;20097;-88
2023/10/29 10:26:54;;;;;;;4.28;2.17;;;;;;;15.36;85.43;98832.06;4897197;29;20063;-79
2023/10/29 10:32:46;;;;;;;4.65;2.03;;;;;;;15.41;85.03;98845.34;5054476;23;20084;-81
2023/10/29 10:35:14;;;;;;;3.45;1.92;;;;;;;15.45;84.86;98849.13;5064765;28;20418;-81
2023/10/29 10:37:53;;;;;;;7.65;2.45;;;;;;;15.60;84.37;98833.66;5062804;28;20112;-81
2023/10/29 10:40:22;;;;;;;6.82;2.28;;;;;;;15.59;83.96;98833.91;5063516;28;20033;-82
2023/10/29 10:42:54;;;;;;;3.42;1.65;;;;;;;15.50;83.75;98822.06;5063302;28;20049;-81
2023/10/29 10:45:26;;;;;;;6.47;2.90;;;;;;;15.50;83.47;98829.97;5063311;28;20064;-82
2023/10/29 10:47:56;;;;;;;5.65;2.20;;;;;;;15.50;83.86;98846.59;5064952;28;20125;-84
2023/10/29 10:50:25;;;;;;;2.13;1.58;;;;;;;15.39;83.67;98850.03;5059954;28;20053;-84
2023/10/29 10:52:53;;;;;;;4.43;2.13;;;;;;;15.36;84.60;98847.06;5052502;28;20186;-84
2023/10/29 10:55:20;;;;;;;6.70;2.33;;;;;;;15.42;84.60;98840.88;5061083;28;20041;-83
2023/10/29 10:57:54;;;;;;;5.63;2.20;;;;;;;15.32;84.63;98841.44;5063987;28;20131;-82
2023/10/29 11:00:24;;;;;;;5.20;2.45;;;;;;;15.36;85.72;98847.88;5063475;28;20053;-83
2023/10/29 11:17:24;;;;;;;3.47;2.10;;;;;;;15.73;85.23;98834.44;4889099;29;20551;-83
2023/10/29 11:27:38;;;;;;;5.38;1.98;;;;;;;15.47;87.39;98865.50;4928926;29;20066;-83
2023/10/29 11:30:18;;;;;;;3.67;1.50;;;;;;;15.32;88.11;98861.72;4945852;29;20102;-83
2023/10/29 11:42:32;;;;;;;4.18;1.25;;;;;;;14.97;91.38;98854.63;4938545;29;20052;-83
2023/10/29 11:45:41;;;;;;;0.70;0.70;;;;;;;15.54;91.42;98855.66;5047998;28;20502;-83
2023/10/29 11:48:22;;;;;;;2.13;1.05;;;;;;;15.62;90.87;98824.69;5061084;28;20059;-83
2023/10/29 11:51:44;;;;;;;1.52;1.02;;;;;;;15.77;89.93;98822.38;5060366;28;20053;-82
2023/10/29 11:57:50;;;;;;;2.08;1.25;;;;;;;15.76;90.28;98831.31;4999585;28;20186;-83
2023/10/29 12:10:45;;;;;;;3.20;1.50;;;;;;;15.39;90.95;98846.59;5059985;28;20053;-83
2023/10/29 12:13:47;;;;;;;1.75;1.05;;;;;;;15.29;91.64;98828.72;5046398;28;20475;-83
2023/10/29 12:17:04;;;;;;;1.17;1.00;;;;;;;15.55;92.42;98859.91;5058338;28;20506;-83
2023/10/29 12:19:54;;;;;;;0.82;0.82;;;;;;;15.48;92.50;98832.06;5057726;28;20068;-83
2023/10/29 12:23:05;;;;;;;2.58;1.25;;;;;;;15.44;92.67;98817.72;5060886;28;20059;-83
2023/10/29 12:29:11;;;;;;;2.50;1.40;;;;;;;15.47;91.12;98756.66;5038922;28;20053;-83
2023/10/29 12:35:34;;;;;;;2.20;1.30;;;;;;;15.62;89.65;98783.31;4948209;28;20105;-83
2023/10/29 12:42:04;;;;;;;3.45;1.50;;;;;;;15.74;89.36;98809.66;4894200;28;20107;-84
2023/10/29 12:45:21;;;;;;;1.75;0.98;;;;;;;15.68;88.96;98813.22;4938894;29;20135;-83
2023/10/29 13:02:22;;;;;;;1.60;1.42;;;;;;;15.07;90.70;98818.00;5024544;28;20546;-83
2023/10/29 13:08:59;;;;;;;3.00;1.17;;;;;;;15.60;90.77;98765.09;4980847;28;20054;-82
2023/10/29 13:14:13;;;;;;;3.03;1.67;;;;;;;15.80;93.58;98763.91;5037397;28;20041;-82
2023/10/29 13:20:34;;;;;;;1.48;1.30;;;;;;;15.75;93.93;98745.34;4946011;29;20541;-83
2023/10/29 13:23:44;;;;;;;2.03;1.50;;;;;;;15.45;95.38;98738.44;5054818;23;20136;-82
2023/10/29 13:30:30;;;;;;;1.88;1.73;;;;;;;15.33;96.97;98719.19;5020137;28;20683;-83
2023/10/29 13:34:05;;;;;;;;;;;;;;;;;;;;;
2023/10/29 13:36:51;;;;;;;2.65;1.85;;;;;;;15.10;96.24;98663.94;5038225;23;20502;-86
2023/10/29 13:39:39;;;;;;;2.25;1.58;;;;;;;15.16;97.04;98673.53;5035331;28;20046;-87
2023/10/29 13:42:31;;;;;;;1.77;1.42;;;;;;;15.21;96.78;98665.72;5045060;28;20045;-88
2023/10/29 13:45:17;;;;;;;1.55;1.10;;;;;;;15.25;96.70;98669.50;5058628;28;20045;-86
2023/10/29 13:48:04;;;;;;;1.90;1.20;;;;;;;15.33;96.41;98700.75;5056951;28;20455;-86
2023/10/29 13:50:31;;;;;;;1.85;1.52;;;;;;;15.18;96.15;98714.41;5057999;23;20057;-84
2023/10/29 13:53:03;;;;;;;1.65;1.52;;;;;;;15.19;96.46;98708.09;5040378;28;20132;-82
2023/10/29 13:55:29;;;;;;;2.83;1.67;;;;;;;15.18;97.01;98724.16;5032459;28;20046;-84
2023/10/29 13:57:58;;;;;;;2.38;1.88;;;;;;;15.13;97.15;98714.31;5041221;28;20045;-83
2023/10/29 14:00:26;;;;;;;2.45;2.10;;;;;;;15.24;97.55;98725.84;5031380;28;20053;-83
2023/10/29 14:45:15;;;;;;;;;;;;;;;;;;;;;
2023/10/29 14:48:42;;;;;;;1.63;0.95;;;;;;;15.93;85.49;98674.75;5039597;28;20049;-81
2023/10/29 15:25:44;;;;;;;3.60;1.33;;;;;;;15.38;84.71;98721.94;4975029;28;20063;-81
2023/10/29 15:29:02;;;;;;;5.22;1.40;;;;;;;15.20;84.67;98735.25;5002593;28;20126;-80
2023/10/29 15:58:29;;;;;;;1.52;1.05;;;;;;;14.79;86.14;98759.91;4870098;29;20057;-82
2023/10/29 16:05:19;;;;;;;2.70;1.73;;;;;;;14.72;85.59;98767.13;4932760;29;20131;-82
2023/10/29 16:07:48;;;;;;;3.83;1.58;;;;;;;14.47;85.91;98748.91;4987516;28;20050;-82
2023/10/29 16:10:31;;;;;;;5.15;1.67;;;;;;;14.49;85.45;98763.44;4999789;28;20124;-82
2023/10/29 16:14:07;;;;;;;2.90;1.35;;;;;;;14.31;85.85;98744.25;5030776;28;20136;-82
2023/10/29 16:17:08;;;;;;;3.35;1.45;;;;;;;14.32;86.48;98772.16;4931659;28;20051;-83
2023/10/29 16:19:45;;;;;;;2.55;1.67;;;;;;;14.13;86.67;98745.16;5042835;28;20060;-82
2023/10/29 16:36:42;;;;;;;3.53;1.90;;;;;;;13.92;87.05;98778.00;4912619;28;20078;-80
2023/10/29 16:39:35;;;;;;;4.53;2.92;;;;;;;13.83;87.92;98806.41;5006704;28;20134;-81
2023/10/29 16:42:30;;;;;;;;;;;;;;;13.85;87.45;98808.81;5011363;28;20061;-81
2023/10/29 17:31:43;;;;;;;4.10;1.98;;;;;;;13.09;91.95;98882.75;4992258;28;20057;-83
2023/10/29 17:34:59;;;;;;;;;;;;;;;;;;;;;
2023/10/29 17:38:08;;;;;;;5.38;2.13;;;;;;;13.01;92.50;98886.44;5068044;28;20053;-84
2023/10/29 18:01:53;;;;;;;;;;;;;;;;;;;;;
2023/10/29 18:05:33;;;;;;;3.20;2.05;;;;;;;12.86;95.55;98939.25;4993555;28;20054;-82
2023/10/29 18:08:27;;;;;;;4.05;2.78;;;;;;;12.85;95.91;98942.09;5006118;28;20049;-82
2023/10/29 18:12:04;;;;;;;6.75;1.98;;;;;;;12.80;96.00;98958.47;5051864;28;20053;-82
2023/10/29 18:22:21;;;;;;;3.13;2.10;;;;;;;12.59;96.65;98961.41;4880770;29;20144;-82
2023/10/29 18:29:22;;;;;;;3.90;2.00;;;;;;;12.59;96.79;98967.47;4853625;29;20101;-81
2023/10/29 18:32:27;;;;;;;4.85;2.20;;;;;;;12.67;97.17;98995.31;4879064;29;20053;-81
2023/10/29 18:48:32;;;;;;;2.30;1.73;;;;;;;12.28;98.43;98983.97;4964833;28;20110;-81
2023/10/29 18:54:26;;;;;;;2.35;1.88;;;;;;;12.36;98.25;98997.81;4956691;28;20167;-82
2023/10/29 18:59:22;;;;;;;2.55;1.67;;;;;;;12.34;98.60;99019.03;5014872;28;20061;-81
2023/10/29 19:01:49;;;;;;;2.75;1.77;;;;;;;12.24;98.92;99016.84;5015274;28;20084;-82
2023/10/29 19:04:20;;;;;;;8.30;2.22;;;;;;;12.27;98.78;99010.38;4998452;28;20054;-82
2023/10/29 19:06:50;;;;;;;7.43;3.03;;;;;;;12.30;98.46;99020.44;5015699;28;20507;-82
2023/10/29 19:09:17;;;;;;;4.80;2.47;;;;;;;12.40;97.36;99017.38;5019182;28;20049;-83
2023/10/29 19:11:46;;;;;;;9.45;3.30;;;;;;;12.43;96.27;99012.53;5038819;28;20060;-83
2023/10/29 19:14:14;;;;;;;6.22;2.60;;;;;;;12.55;95.22;99007.47;5038735;28;20060;-82
2023/10/29 19:16:45;;;;;;;3.85;2.20;;;;;;;12.59;94.18;98993.72;5040750;28;20424;-82
2023/10/29 19:19:18;;;;;;;4.68;2.17;;;;;;;12.75;92.97;99013.44;5026711;28;20045;-81
2023/10/29 19:21:45;;;;;;;7.32;2.83;;;;;;;12.77;92.43;99015.81;5022960;28;20125;-84
2023/10/29 19:24:11;;;;;;;5.80;2.30;;;;;;;12.77;91.93;99027.13;5037849;28;20091;-79
2023/10/29 19:26:38;;;;;;;8.65;2.75;;;;;;;12.75;91.73;99023.13;5022704;28;20054;-81
2023/10/29 19:29:08;;;;;;;6.28;2.15;;;;;;;12.70;91.94;99022.94;5012909;28;20919;-81
2023/10/29 19:31:37;;;;;;;7.50;2.92;;;;;;;12.60;91.67;99015.50;5021617;28;20057;-82
2023/10/29 19:34:07;;;;;;;5.00;2.38;;;;;;;12.65;91.55;99051.63;5021781;28;20166;-83
2023/10/29 19:36:37;;;;;;;10.32;2.70;;;;;;;12.63;91.76;99046.59;5029030;28;20050;-82
2023/10/29 19:39:04;;;;;;;8.48;3.10;;;;;;;12.66;91.65;99056.66;5020975;28;20053;-81
2023/10/29 19:41:36;;;;;;;7.22;3.28;;;;;;;12.61;91.26;99045.97;5036989;28;20424;-82
2023/10/29 19:44:08;;;;;;;7.38;2.90;;;;;;;12.60;91.16;99039.13;5028368;28;20077;-83
2023/10/29 19:46:35;;;;;;;8.88;2.88;;;;;;;12.75;90.19;99060.69;5030333;28;20042;-83
2023/10/29 19:49:04;;;;;;;9.85;3.00;;;;;;;12.65;90.24;99057.69;5036080;28;20080;-81
2023/10/29 19:51:31;;;;;;;7.38;2.40;;;;;;;12.65;90.51;99076.06;5042164;28;20119;-83
2023/10/29 19:53:59;;;;;;;6.38;2.78;;;;;;;12.63;90.51;99078.06;5042274;28;20053;-82
2023/10/29 19:56:26;;;;;;;7.50;2.72;;;;;;;12.62;90.67;99089.59;5025450;28;20439;-82